sensor_id;sensor_type;location;lat;lon;timestamp;temperature;humidity
48264;DHT22;34086;51.076;13.722;2022-09-03T00:00:14;14.70;99.90
48264;DHT22;34086;51.076;13.722;2022-09-03T00:01:49;14.70;99.90
48264;DHT22;34086;51.076;13.722;2022-09-03T00:02:57;14.70;99.90
48264;DHT22;34086;51.076;13.722;2022-09-03T00:04:04;14.70;99.90
48264;DHT22;34086;51.076;13.722;2022-09-03T00:05:22;14.70;99.90
48264;DHT22;34086;51.076;13.722;2022-09-03T00:06:34;14.70;99.90
48264;DHT22;34086;51.076;13.722;2022-09-03T00:07:55;14.70;99.90
48264;DHT22;34086;51.076;13.722;2022-09-03T00:09:22;14.70;99.90
48264;DHT22;34086;51.076;13.722;2022-09-03T00:10:48;14.70;99.90
48264;DHT22;34086;51.076;13.722;2022-09-03T00:12:12;14.70;99.90
48264;DHT22;34086;51.076;13.722;2022-09-03T00:13:21;14.70;99.90
48264;DHT22;34086;51.076;13.722;2022-09-03T00:14:26;14.70;99.90
48264;DHT22;34086;51.076;13.722;2022-09-03T00:15:31;14.70;99.90
48264;DHT22;34086;51.076;13.722;2022-09-03T00:16:44;14.70;99.90
48264;DHT22;34086;51.076;13.722;2022-09-03T00:18:00;14.70;99.90
48264;DHT22;34086;51.076;13.722;2022-09-03T00:19:04;14.70;99.90
48264;DHT22;34086;51.076;13.722;2022-09-03T00:21:15;14.70;99.90
48264;DHT22;34086;51.076;13.722;2022-09-03T00:22:29;14.70;99.90
48264;DHT22;34086;51.076;13.722;2022-09-03T00:23:32;14.70;99.90
48264;DHT22;34086;51.076;13.722;2022-09-03T00:24:37;14.70;99.90
48264;DHT22;34086;51.076;13.722;2022-09-03T00:26:58;14.60;99.90
48264;DHT22;34086;51.076;13.722;2022-09-03T00:28:10;14.60;99.90
48264;DHT22;34086;51.076;13.722;2022-09-03T00:29:16;14.60;99.90
48264;DHT22;34086;51.076;13.722;2022-09-03T00:30:20;14.60;99.90
48264;DHT22;34086;51.076;13.722;2022-09-03T00:32:36;14.50;99.90
48264;DHT22;34086;51.076;13.722;2022-09-03T00:33:41;14.50;99.90
48264;DHT22;34086;51.076;13.722;2022-09-03T00:34:53;14.50;99.90
48264;DHT22;34086;51.076;13.722;2022-09-03T00:37:03;14.40;99.90
48264;DHT22;34086;51.076;13.722;2022-09-03T00:38:10;14.30;99.90
48264;DHT22;34086;51.076;13.722;2022-09-03T00:39:14;14.30;99.90
48264;DHT22;34086;51.076;13.722;2022-09-03T00:40:24;14.20;99.90
48264;DHT22;34086;51.076;13.722;2022-09-03T00:44:55;14.00;99.90
48264;DHT22;34086;51.076;13.722;2022-09-03T00:46:22;14.00;99.90
48264;DHT22;34086;51.076;13.722;2022-09-03T00:54:18;13.70;99.90
48264;DHT22;34086;51.076;13.722;2022-09-03T00:55:32;13.70;99.90
48264;DHT22;34086;51.076;13.722;2022-09-03T01:00:19;13.70;99.90
48264;DHT22;34086;51.076;13.722;2022-09-03T01:01:29;13.60;99.90
48264;DHT22;34086;51.076;13.722;2022-09-03T01:05:24;13.60;99.90
48264;DHT22;34086;51.076;13.722;2022-09-03T01:08:06;13.50;99.90
48264;DHT22;34086;51.076;13.722;2022-09-03T01:09:30;13.50;99.90
48264;DHT22;34086;51.076;13.722;2022-09-03T01:12:22;13.40;99.90
48264;DHT22;34086;51.076;13.722;2022-09-03T01:13:35;13.40;99.90
48264;DHT22;34086;51.076;13.722;2022-09-03T01:17:15;13.30;99.90
48264;DHT22;34086;51.076;13.722;2022-09-03T01:21:53;13.30;99.90
48264;DHT22;34086;51.076;13.722;2022-09-03T01:27:21;13.20;99.90
48264;DHT22;34086;51.076;13.722;2022-09-03T01:33:54;13.10;99.90
48264;DHT22;34086;51.076;13.722;2022-09-03T01:35:22;13.10;99.90
48264;DHT22;34086;51.076;13.722;2022-09-03T01:39:06;13.10;99.90
48264;DHT22;34086;51.076;13.722;2022-09-03T01:46:30;13.10;99.90
48264;DHT22;34086;51.076;13.722;2022-09-03T01:48:59;13.10;99.90
48264;DHT22;34086;51.076;13.722;2022-09-03T01:50:12;13.10;99.90
48264;DHT22;34086;51.076;13.722;2022-09-03T01:51:26;13.00;99.90
48264;DHT22;34086;51.076;13.722;2022-09-03T01:57:51;13.00;99.90
48264;DHT22;34086;51.076;13.722;2022-09-03T01:59:21;12.90;99.90
48264;DHT22;34086;51.076;13.722;2022-09-03T02:00:24;12.90;99.90
48264;DHT22;34086;51.076;13.722;2022-09-03T02:01:29;12.90;99.90
48264;DHT22;34086;51.076;13.722;2022-09-03T02:02:34;12.90;99.90
48264;DHT22;34086;51.076;13.722;2022-09-03T02:03:38;12.90;99.90
48264;DHT22;34086;51.076;13.722;2022-09-03T02:04:40;12.90;99.90
48264;DHT22;34086;51.076;13.722;2022-09-03T02:05:41;12.90;99.90
48264;DHT22;34086;51.076;13.722;2022-09-03T02:06:43;12.90;99.90
48264;DHT22;34086;51.076;13.722;2022-09-03T02:08:53;12.80;99.90
48264;DHT22;34086;51.076;13.722;2022-09-03T02:09:54;12.80;99.90
48264;DHT22;34086;51.076;13.722;2022-09-03T02:10:56;12.80;99.90
48264;DHT22;34086;51.076;13.722;2022-09-03T02:12:10;12.80;99.90
48264;DHT22;34086;51.076;13.722;2022-09-03T02:13:34;12.80;99.90
48264;DHT22;34086;51.076;13.722;2022-09-03T02:14:35;12.80;99.90
48264;DHT22;34086;51.076;13.722;2022-09-03T02:15:39;12.80;99.90
48264;DHT22;34086;51.076;13.722;2022-09-03T02:16:41;12.70;99.90
48264;DHT22;34086;51.076;13.722;2022-09-03T02:17:46;12.70;99.90
48264;DHT22;34086;51.076;13.722;2022-09-03T02:18:54;12.70;99.90
48264;DHT22;34086;51.076;13.722;2022-09-03T02:19:55;12.70;99.90
48264;DHT22;34086;51.076;13.722;2022-09-03T02:21:04;12.70;99.90
48264;DHT22;34086;51.076;13.722;2022-09-03T02:22:05;12.70;99.90
48264;DHT22;34086;51.076;13.722;2022-09-03T02:23:06;12.70;99.90
48264;DHT22;34086;51.076;13.722;2022-09-03T02:24:08;12.70;99.90
48264;DHT22;34086;51.076;13.722;2022-09-03T02:25:12;12.60;99.90
48264;DHT22;34086;51.076;13.722;2022-09-03T02:26:17;12.60;99.90
48264;DHT22;34086;51.076;13.722;2022-09-03T02:27:18;12.60;99.90
48264;DHT22;34086;51.076;13.722;2022-09-03T02:28:19;12.70;99.90
48264;DHT22;34086;51.076;13.722;2022-09-03T02:29:20;12.70;99.90
48264;DHT22;34086;51.076;13.722;2022-09-03T02:30:21;12.70;99.90
48264;DHT22;34086;51.076;13.722;2022-09-03T02:31:22;12.70;99.90
48264;DHT22;34086;51.076;13.722;2022-09-03T02:32:23;12.60;99.90
48264;DHT22;34086;51.076;13.722;2022-09-03T02:33:25;12.60;99.90
48264;DHT22;34086;51.076;13.722;2022-09-03T02:34:26;12.60;99.90
48264;DHT22;34086;51.076;13.722;2022-09-03T02:35:30;12.60;99.90
48264;DHT22;34086;51.076;13.722;2022-09-03T02:36:45;12.60;99.90
48264;DHT22;34086;51.076;13.722;2022-09-03T02:37:46;12.60;99.90
48264;DHT22;34086;51.076;13.722;2022-09-03T02:38:47;12.60;99.90
48264;DHT22;34086;51.076;13.722;2022-09-03T02:39:47;12.50;99.90
48264;DHT22;34086;51.076;13.722;2022-09-03T02:40:48;12.50;99.90
48264;DHT22;34086;51.076;13.722;2022-09-03T02:41:55;12.50;99.90
48264;DHT22;34086;51.076;13.722;2022-09-03T02:42:57;12.50;99.90
48264;DHT22;34086;51.076;13.722;2022-09-03T02:44:25;12.50;99.90
48264;DHT22;34086;51.076;13.722;2022-09-03T02:45:28;12.50;99.90
48264;DHT22;34086;51.076;13.722;2022-09-03T02:46:48;12.40;99.90
48264;DHT22;34086;51.076;13.722;2022-09-03T02:47:54;12.40;99.90
48264;DHT22;34086;51.076;13.722;2022-09-03T02:48:55;12.40;99.90
48264;DHT22;34086;51.076;13.722;2022-09-03T02:50:15;12.40;99.90
48264;DHT22;34086;51.076;13.722;2022-09-03T02:51:16;12.40;99.90
48264;DHT22;34086;51.076;13.722;2022-09-03T02:52:16;12.40;99.90
48264;DHT22;34086;51.076;13.722;2022-09-03T02:53:17;12.40;99.90
48264;DHT22;34086;51.076;13.722;2022-09-03T02:54:18;12.40;99.90
48264;DHT22;34086;51.076;13.722;2022-09-03T02:55:19;12.40;99.90
48264;DHT22;34086;51.076;13.722;2022-09-03T02:56:20;12.40;99.90
48264;DHT22;34086;51.076;13.722;2022-09-03T02:57:23;12.40;99.90
48264;DHT22;34086;51.076;13.722;2022-09-03T02:58:24;12.40;99.90
48264;DHT22;34086;51.076;13.722;2022-09-03T02:59:25;12.40;99.90
48264;DHT22;34086;51.076;13.722;2022-09-03T03:00:27;12.40;99.90
48264;DHT22;34086;51.076;13.722;2022-09-03T03:01:28;12.40;99.90
48264;DHT22;34086;51.076;13.722;2022-09-03T03:02:29;12.40;99.90
48264;DHT22;34086;51.076;13.722;2022-09-03T03:03:29;12.40;99.90
48264;DHT22;34086;51.076;13.722;2022-09-03T03:04:31;12.40;99.90
48264;DHT22;34086;51.076;13.722;2022-09-03T03:05:46;12.30;99.90
48264;DHT22;34086;51.076;13.722;2022-09-03T03:06:48;12.30;99.90
48264;DHT22;34086;51.076;13.722;2022-09-03T03:07:50;12.30;99.90
48264;DHT22;34086;51.076;13.722;2022-09-03T03:08:50;12.30;99.90
48264;DHT22;34086;51.076;13.722;2022-09-03T03:09:51;12.30;99.90
48264;DHT22;34086;51.076;13.722;2022-09-03T03:10:56;12.30;99.90
48264;DHT22;34086;51.076;13.722;2022-09-03T03:11:58;12.30;99.90
48264;DHT22;34086;51.076;13.722;2022-09-03T03:12:58;12.30;99.90
48264;DHT22;34086;51.076;13.722;2022-09-03T03:13:59;12.30;99.90
48264;DHT22;34086;51.076;13.722;2022-09-03T03:15:00;12.30;99.90
48264;DHT22;34086;51.076;13.722;2022-09-03T03:16:03;12.30;99.90
48264;DHT22;34086;51.076;13.722;2022-09-03T03:17:07;12.30;99.90
48264;DHT22;34086;51.076;13.722;2022-09-03T03:18:08;12.30;99.90
48264;DHT22;34086;51.076;13.722;2022-09-03T03:19:11;12.30;99.90
48264;DHT22;34086;51.076;13.722;2022-09-03T03:20:12;12.30;99.90
48264;DHT22;34086;51.076;13.722;2022-09-03T03:21:17;12.30;99.90
48264;DHT22;34086;51.076;13.722;2022-09-03T03:22:18;12.30;99.90
48264;DHT22;34086;51.076;13.722;2022-09-03T03:23:18;12.30;99.90
48264;DHT22;34086;51.076;13.722;2022-09-03T03:24:22;12.30;99.90
48264;DHT22;34086;51.076;13.722;2022-09-03T03:25:23;12.30;99.90
48264;DHT22;34086;51.076;13.722;2022-09-03T03:26:24;12.30;99.90
48264;DHT22;34086;51.076;13.722;2022-09-03T03:27:25;12.30;99.90
48264;DHT22;34086;51.076;13.722;2022-09-03T03:28:28;12.30;99.90
48264;DHT22;34086;51.076;13.722;2022-09-03T03:29:33;12.30;99.90
48264;DHT22;34086;51.076;13.722;2022-09-03T03:30:38;12.20;99.90
48264;DHT22;34086;51.076;13.722;2022-09-03T03:31:39;12.20;99.90
48264;DHT22;34086;51.076;13.722;2022-09-03T03:32:40;12.20;99.90
48264;DHT22;34086;51.076;13.722;2022-09-03T03:33:41;12.20;99.90
48264;DHT22;34086;51.076;13.722;2022-09-03T03:34:45;12.20;99.90
48264;DHT22;34086;51.076;13.722;2022-09-03T03:35:46;12.20;99.90
48264;DHT22;34086;51.076;13.722;2022-09-03T03:36:47;12.20;99.90
48264;DHT22;34086;51.076;13.722;2022-09-03T03:37:47;12.10;99.90
48264;DHT22;34086;51.076;13.722;2022-09-03T03:38:48;12.10;99.90
48264;DHT22;34086;51.076;13.722;2022-09-03T03:39:49;12.10;99.90
48264;DHT22;34086;51.076;13.722;2022-09-03T03:40:50;12.10;99.90
48264;DHT22;34086;51.076;13.722;2022-09-03T03:41:50;12.10;99.90
48264;DHT22;34086;51.076;13.722;2022-09-03T03:42:52;12.10;99.90
48264;DHT22;34086;51.076;13.722;2022-09-03T03:43:57;12.10;99.90
48264;DHT22;34086;51.076;13.722;2022-09-03T03:44:59;12.10;99.90
48264;DHT22;34086;51.076;13.722;2022-09-03T03:46:01;12.10;99.90
48264;DHT22;34086;51.076;13.722;2022-09-03T03:47:02;12.10;99.90
48264;DHT22;34086;51.076;13.722;2022-09-03T03:48:05;12.00;99.90
48264;DHT22;34086;51.076;13.722;2022-09-03T03:49:07;12.00;99.90
48264;DHT22;34086;51.076;13.722;2022-09-03T03:50:08;12.00;99.90
48264;DHT22;34086;51.076;13.722;2022-09-03T03:51:09;12.00;99.90
48264;DHT22;34086;51.076;13.722;2022-09-03T03:52:10;12.00;99.90
48264;DHT22;34086;51.076;13.722;2022-09-03T03:53:10;12.00;99.90
48264;DHT22;34086;51.076;13.722;2022-09-03T03:54:11;11.90;99.90
48264;DHT22;34086;51.076;13.722;2022-09-03T03:55:12;11.90;99.90
48264;DHT22;34086;51.076;13.722;2022-09-03T03:56:14;11.90;99.90
48264;DHT22;34086;51.076;13.722;2022-09-03T03:57:17;11.90;99.90
48264;DHT22;34086;51.076;13.722;2022-09-03T03:58:18;11.90;99.90
48264;DHT22;34086;51.076;13.722;2022-09-03T03:59:19;11.90;99.90
48264;DHT22;34086;51.076;13.722;2022-09-03T04:00:20;11.90;99.90
48264;DHT22;34086;51.076;13.722;2022-09-03T04:01:24;11.90;99.90
48264;DHT22;34086;51.076;13.722;2022-09-03T04:02:24;11.90;99.90
48264;DHT22;34086;51.076;13.722;2022-09-03T04:03:25;11.90;99.90
48264;DHT22;34086;51.076;13.722;2022-09-03T04:04:26;11.90;99.90
48264;DHT22;34086;51.076;13.722;2022-09-03T04:05:26;11.90;99.90
48264;DHT22;34086;51.076;13.722;2022-09-03T04:06:27;11.80;99.90
48264;DHT22;34086;51.076;13.722;2022-09-03T04:07:28;11.80;99.90
48264;DHT22;34086;51.076;13.722;2022-09-03T04:08:29;11.90;99.90
48264;DHT22;34086;51.076;13.722;2022-09-03T04:09:30;11.90;99.90
48264;DHT22;34086;51.076;13.722;2022-09-03T04:10:31;11.90;99.90
48264;DHT22;34086;51.076;13.722;2022-09-03T04:11:31;11.90;99.90
48264;DHT22;34086;51.076;13.722;2022-09-03T04:12:32;11.90;99.90
48264;DHT22;34086;51.076;13.722;2022-09-03T04:13:35;11.90;99.90
48264;DHT22;34086;51.076;13.722;2022-09-03T04:14:36;11.90;99.90
48264;DHT22;34086;51.076;13.722;2022-09-03T04:15:42;11.90;99.90
48264;DHT22;34086;51.076;13.722;2022-09-03T04:16:43;11.90;99.90
48264;DHT22;34086;51.076;13.722;2022-09-03T04:17:46;11.80;99.90
48264;DHT22;34086;51.076;13.722;2022-09-03T04:18:47;11.80;99.90
48264;DHT22;34086;51.076;13.722;2022-09-03T04:19:48;11.90;99.90
48264;DHT22;34086;51.076;13.722;2022-09-03T04:20:50;11.90;99.90
48264;DHT22;34086;51.076;13.722;2022-09-03T04:21:50;11.80;99.90
48264;DHT22;34086;51.076;13.722;2022-09-03T04:22:51;11.90;99.90
48264;DHT22;34086;51.076;13.722;2022-09-03T04:23:52;11.80;99.90
48264;DHT22;34086;51.076;13.722;2022-09-03T04:24:53;11.80;99.90
48264;DHT22;34086;51.076;13.722;2022-09-03T04:25:54;11.80;99.90
48264;DHT22;34086;51.076;13.722;2022-09-03T04:26:54;11.80;99.90
48264;DHT22;34086;51.076;13.722;2022-09-03T04:27:55;11.80;99.90
48264;DHT22;34086;51.076;13.722;2022-09-03T04:28:56;11.80;99.90
48264;DHT22;34086;51.076;13.722;2022-09-03T04:29:57;11.80;99.90
48264;DHT22;34086;51.076;13.722;2022-09-03T04:31:02;11.80;99.90
48264;DHT22;34086;51.076;13.722;2022-09-03T04:32:03;11.70;99.90
48264;DHT22;34086;51.076;13.722;2022-09-03T04:33:24;11.70;99.90
48264;DHT22;34086;51.076;13.722;2022-09-03T04:34:24;11.70;99.90
48264;DHT22;34086;51.076;13.722;2022-09-03T04:35:26;11.70;99.90
48264;DHT22;34086;51.076;13.722;2022-09-03T04:36:30;11.70;99.90
48264;DHT22;34086;51.076;13.722;2022-09-03T04:37:31;11.70;99.90
48264;DHT22;34086;51.076;13.722;2022-09-03T04:38:33;11.70;99.90
48264;DHT22;34086;51.076;13.722;2022-09-03T04:39:34;11.70;99.90
48264;DHT22;34086;51.076;13.722;2022-09-03T04:40:35;11.70;99.90
48264;DHT22;34086;51.076;13.722;2022-09-03T04:41:36;11.70;99.90
48264;DHT22;34086;51.076;13.722;2022-09-03T04:42:37;11.80;99.90
48264;DHT22;34086;51.076;13.722;2022-09-03T04:43:38;11.70;99.90
48264;DHT22;34086;51.076;13.722;2022-09-03T04:44:39;11.80;99.90
48264;DHT22;34086;51.076;13.722;2022-09-03T04:45:40;11.70;99.90
48264;DHT22;34086;51.076;13.722;2022-09-03T04:46:41;11.70;99.90
48264;DHT22;34086;51.076;13.722;2022-09-03T04:47:41;11.70;99.90
48264;DHT22;34086;51.076;13.722;2022-09-03T04:48:42;11.70;99.90
48264;DHT22;34086;51.076;13.722;2022-09-03T04:49:43;11.70;99.90
48264;DHT22;34086;51.076;13.722;2022-09-03T04:50:44;11.60;99.90
48264;DHT22;34086;51.076;13.722;2022-09-03T04:51:45;11.60;99.90
48264;DHT22;34086;51.076;13.722;2022-09-03T04:52:46;11.60;99.90
48264;DHT22;34086;51.076;13.722;2022-09-03T04:53:47;11.60;99.90
48264;DHT22;34086;51.076;13.722;2022-09-03T04:54:52;11.60;99.90
48264;DHT22;34086;51.076;13.722;2022-09-03T04:55:53;11.60;99.90
48264;DHT22;34086;51.076;13.722;2022-09-03T04:56:53;11.60;99.90
48264;DHT22;34086;51.076;13.722;2022-09-03T04:57:54;11.60;99.90
48264;DHT22;34086;51.076;13.722;2022-09-03T04:59:00;11.60;99.90
48264;DHT22;34086;51.076;13.722;2022-09-03T05:00:01;11.60;99.90
48264;DHT22;34086;51.076;13.722;2022-09-03T05:01:09;11.60;99.90
48264;DHT22;34086;51.076;13.722;2022-09-03T05:02:10;11.60;99.90
48264;DHT22;34086;51.076;13.722;2022-09-03T05:03:11;11.60;99.90
48264;DHT22;34086;51.076;13.722;2022-09-03T05:04:12;11.60;99.90
48264;DHT22;34086;51.076;13.722;2022-09-03T05:05:12;11.70;99.90
48264;DHT22;34086;51.076;13.722;2022-09-03T05:06:13;11.70;99.90
48264;DHT22;34086;51.076;13.722;2022-09-03T05:07:16;11.70;99.90
48264;DHT22;34086;51.076;13.722;2022-09-03T05:08:17;11.80;99.90
48264;DHT22;34086;51.076;13.722;2022-09-03T05:09:18;12.00;99.90
48264;DHT22;34086;51.076;13.722;2022-09-03T05:10:18;12.30;99.90
48264;DHT22;34086;51.076;13.722;2022-09-03T05:11:24;12.60;99.90
48264;DHT22;34086;51.076;13.722;2022-09-03T05:12:25;12.90;99.90
48264;DHT22;34086;51.076;13.722;2022-09-03T05:13:26;13.20;99.90
48264;DHT22;34086;51.076;13.722;2022-09-03T05:14:27;13.40;99.90
48264;DHT22;34086;51.076;13.722;2022-09-03T05:15:29;13.70;99.90
48264;DHT22;34086;51.076;13.722;2022-09-03T05:16:30;13.90;99.90
48264;DHT22;34086;51.076;13.722;2022-09-03T05:17:31;14.20;99.90
48264;DHT22;34086;51.076;13.722;2022-09-03T05:18:33;14.40;99.90
48264;DHT22;34086;51.076;13.722;2022-09-03T05:19:37;14.60;99.90
48264;DHT22;34086;51.076;13.722;2022-09-03T05:20:38;14.80;99.90
48264;DHT22;34086;51.076;13.722;2022-09-03T05:21:39;14.90;99.90
48264;DHT22;34086;51.076;13.722;2022-09-03T05:22:40;15.00;99.90
48264;DHT22;34086;51.076;13.722;2022-09-03T05:23:45;15.20;99.90
48264;DHT22;34086;51.076;13.722;2022-09-03T05:24:47;15.30;99.90
48264;DHT22;34086;51.076;13.722;2022-09-03T05:25:55;15.50;99.90
48264;DHT22;34086;51.076;13.722;2022-09-03T05:26:58;15.60;99.90
48264;DHT22;34086;51.076;13.722;2022-09-03T05:27:58;15.70;99.90
48264;DHT22;34086;51.076;13.722;2022-09-03T05:29:01;15.80;99.90
48264;DHT22;34086;51.076;13.722;2022-09-03T05:30:04;15.80;99.90
48264;DHT22;34086;51.076;13.722;2022-09-03T05:31:05;15.80;99.90
48264;DHT22;34086;51.076;13.722;2022-09-03T05:32:06;15.70;99.90
48264;DHT22;34086;51.076;13.722;2022-09-03T05:33:07;15.60;99.90
48264;DHT22;34086;51.076;13.722;2022-09-03T05:34:09;15.30;99.90
48264;DHT22;34086;51.076;13.722;2022-09-03T05:35:10;15.10;99.90
48264;DHT22;34086;51.076;13.722;2022-09-03T05:36:12;14.90;99.90
48264;DHT22;34086;51.076;13.722;2022-09-03T05:37:14;14.70;99.90
48264;DHT22;34086;51.076;13.722;2022-09-03T05:38:14;14.40;99.90
48264;DHT22;34086;51.076;13.722;2022-09-03T05:39:16;14.30;99.90
48264;DHT22;34086;51.076;13.722;2022-09-03T05:40:17;14.10;99.90
48264;DHT22;34086;51.076;13.722;2022-09-03T05:41:17;14.00;99.90
48264;DHT22;34086;51.076;13.722;2022-09-03T05:42:18;13.80;99.90
48264;DHT22;34086;51.076;13.722;2022-09-03T05:43:19;13.80;99.90
48264;DHT22;34086;51.076;13.722;2022-09-03T05:44:20;13.70;99.90
48264;DHT22;34086;51.076;13.722;2022-09-03T05:45:22;13.60;99.90
48264;DHT22;34086;51.076;13.722;2022-09-03T05:46:29;13.50;99.90
48264;DHT22;34086;51.076;13.722;2022-09-03T05:47:31;13.50;99.90
48264;DHT22;34086;51.076;13.722;2022-09-03T05:48:36;13.40;99.90
48264;DHT22;34086;51.076;13.722;2022-09-03T05:49:37;13.40;99.90
48264;DHT22;34086;51.076;13.722;2022-09-03T05:50:38;13.30;99.90
48264;DHT22;34086;51.076;13.722;2022-09-03T05:51:39;13.30;99.90
48264;DHT22;34086;51.076;13.722;2022-09-03T05:52:40;13.30;99.90
48264;DHT22;34086;51.076;13.722;2022-09-03T05:53:45;13.30;99.90
48264;DHT22;34086;51.076;13.722;2022-09-03T05:54:46;13.30;99.90
48264;DHT22;34086;51.076;13.722;2022-09-03T05:55:54;13.30;99.90
48264;DHT22;34086;51.076;13.722;2022-09-03T05:56:58;13.30;99.90
48264;DHT22;34086;51.076;13.722;2022-09-03T05:57:59;13.30;99.90
48264;DHT22;34086;51.076;13.722;2022-09-03T05:59:02;13.30;99.90
48264;DHT22;34086;51.076;13.722;2022-09-03T06:00:08;13.30;99.90
48264;DHT22;34086;51.076;13.722;2022-09-03T06:01:17;13.30;99.90
48264;DHT22;34086;51.076;13.722;2022-09-03T06:02:19;13.40;99.90
48264;DHT22;34086;51.076;13.722;2022-09-03T06:03:20;13.40;99.90
48264;DHT22;34086;51.076;13.722;2022-09-03T06:04:21;13.40;99.90
48264;DHT22;34086;51.076;13.722;2022-09-03T06:05:21;13.40;99.90
48264;DHT22;34086;51.076;13.722;2022-09-03T06:06:23;13.40;99.90
48264;DHT22;34086;51.076;13.722;2022-09-03T06:07:24;13.40;99.90
48264;DHT22;34086;51.076;13.722;2022-09-03T06:08:26;13.50;99.90
48264;DHT22;34086;51.076;13.722;2022-09-03T06:09:27;13.50;99.90
48264;DHT22;34086;51.076;13.722;2022-09-03T06:10:27;13.50;99.90
48264;DHT22;34086;51.076;13.722;2022-09-03T06:11:30;13.50;99.90
48264;DHT22;34086;51.076;13.722;2022-09-03T06:12:33;13.60;99.90
48264;DHT22;34086;51.076;13.722;2022-09-03T06:13:35;13.60;99.90
48264;DHT22;34086;51.076;13.722;2022-09-03T06:14:36;13.60;99.90
48264;DHT22;34086;51.076;13.722;2022-09-03T06:15:37;13.60;99.90
48264;DHT22;34086;51.076;13.722;2022-09-03T06:16:40;13.70;99.90
48264;DHT22;34086;51.076;13.722;2022-09-03T06:17:42;13.70;99.90
48264;DHT22;34086;51.076;13.722;2022-09-03T06:18:43;13.70;99.90
48264;DHT22;34086;51.076;13.722;2022-09-03T06:19:49;13.80;99.90
48264;DHT22;34086;51.076;13.722;2022-09-03T06:20:57;13.80;99.90
48264;DHT22;34086;51.076;13.722;2022-09-03T06:22:10;13.80;99.90
48264;DHT22;34086;51.076;13.722;2022-09-03T06:23:14;13.80;99.90
48264;DHT22;34086;51.076;13.722;2022-09-03T06:24:15;13.80;99.90
48264;DHT22;34086;51.076;13.722;2022-09-03T06:25:16;13.90;99.90
48264;DHT22;34086;51.076;13.722;2022-09-03T06:26:18;13.90;99.90
48264;DHT22;34086;51.076;13.722;2022-09-03T06:27:33;13.90;99.90
48264;DHT22;34086;51.076;13.722;2022-09-03T06:28:39;13.90;99.90
48264;DHT22;34086;51.076;13.722;2022-09-03T06:29:57;13.90;99.90
48264;DHT22;34086;51.076;13.722;2022-09-03T06:31:03;13.90;99.90
48264;DHT22;34086;51.076;13.722;2022-09-03T06:32:04;13.90;99.90
48264;DHT22;34086;51.076;13.722;2022-09-03T06:33:17;14.00;99.90
48264;DHT22;34086;51.076;13.722;2022-09-03T06:34:22;14.00;99.90
48264;DHT22;34086;51.076;13.722;2022-09-03T06:35:25;14.00;99.90
48264;DHT22;34086;51.076;13.722;2022-09-03T06:36:25;14.10;99.90
48264;DHT22;34086;51.076;13.722;2022-09-03T06:37:28;14.10;99.90
48264;DHT22;34086;51.076;13.722;2022-09-03T06:38:34;14.10;99.90
48264;DHT22;34086;51.076;13.722;2022-09-03T06:39:44;14.10;99.90
48264;DHT22;34086;51.076;13.722;2022-09-03T06:40:51;14.20;99.90
48264;DHT22;34086;51.076;13.722;2022-09-03T06:41:52;14.20;99.90
48264;DHT22;34086;51.076;13.722;2022-09-03T06:43:00;14.20;99.90
48264;DHT22;34086;51.076;13.722;2022-09-03T06:44:14;14.20;99.90
48264;DHT22;34086;51.076;13.722;2022-09-03T06:45:29;14.30;99.90
48264;DHT22;34086;51.076;13.722;2022-09-03T06:46:31;14.30;99.90
48264;DHT22;34086;51.076;13.722;2022-09-03T06:47:38;14.30;99.90
48264;DHT22;34086;51.076;13.722;2022-09-03T06:48:39;14.30;99.90
48264;DHT22;34086;51.076;13.722;2022-09-03T06:49:46;14.40;99.90
48264;DHT22;34086;51.076;13.722;2022-09-03T06:50:59;14.40;99.90
48264;DHT22;34086;51.076;13.722;2022-09-03T06:52:01;14.40;99.90
48264;DHT22;34086;51.076;13.722;2022-09-03T06:53:01;14.40;99.90
48264;DHT22;34086;51.076;13.722;2022-09-03T06:54:07;14.50;99.90
48264;DHT22;34086;51.076;13.722;2022-09-03T06:55:08;14.50;99.90
48264;DHT22;34086;51.076;13.722;2022-09-03T06:56:11;14.60;99.90
48264;DHT22;34086;51.076;13.722;2022-09-03T06:57:11;14.60;99.90
48264;DHT22;34086;51.076;13.722;2022-09-03T06:58:12;14.70;99.90
48264;DHT22;34086;51.076;13.722;2022-09-03T06:59:13;14.70;99.90
48264;DHT22;34086;51.076;13.722;2022-09-03T07:00:15;14.70;99.90
48264;DHT22;34086;51.076;13.722;2022-09-03T07:01:21;14.80;99.90
48264;DHT22;34086;51.076;13.722;2022-09-03T07:02:22;14.80;99.90
48264;DHT22;34086;51.076;13.722;2022-09-03T07:03:23;14.90;99.90
48264;DHT22;34086;51.076;13.722;2022-09-03T07:04:24;14.90;99.90
48264;DHT22;34086;51.076;13.722;2022-09-03T07:05:26;14.90;99.90
48264;DHT22;34086;51.076;13.722;2022-09-03T07:06:30;14.90;99.90
48264;DHT22;34086;51.076;13.722;2022-09-03T07:07:31;15.00;99.90
48264;DHT22;34086;51.076;13.722;2022-09-03T07:08:33;15.00;99.90
48264;DHT22;34086;51.076;13.722;2022-09-03T07:09:33;14.90;99.90
48264;DHT22;34086;51.076;13.722;2022-09-03T07:10:37;15.00;99.90
48264;DHT22;34086;51.076;13.722;2022-09-03T07:11:38;15.00;99.90
48264;DHT22;34086;51.076;13.722;2022-09-03T07:12:46;15.00;99.90
48264;DHT22;34086;51.076;13.722;2022-09-03T07:13:48;15.00;99.90
48264;DHT22;34086;51.076;13.722;2022-09-03T07:14:49;15.10;99.90
48264;DHT22;34086;51.076;13.722;2022-09-03T07:16:07;15.00;99.90
48264;DHT22;34086;51.076;13.722;2022-09-03T07:17:08;15.10;99.90
48264;DHT22;34086;51.076;13.722;2022-09-03T07:18:08;15.10;99.90
48264;DHT22;34086;51.076;13.722;2022-09-03T07:19:09;15.10;99.90
48264;DHT22;34086;51.076;13.722;2022-09-03T07:20:10;15.10;99.90
48264;DHT22;34086;51.076;13.722;2022-09-03T07:21:12;15.10;99.90
48264;DHT22;34086;51.076;13.722;2022-09-03T07:22:13;15.20;99.90
48264;DHT22;34086;51.076;13.722;2022-09-03T07:23:14;15.20;99.90
48264;DHT22;34086;51.076;13.722;2022-09-03T07:24:16;15.30;99.90
48264;DHT22;34086;51.076;13.722;2022-09-03T07:25:17;15.20;99.90
48264;DHT22;34086;51.076;13.722;2022-09-03T07:26:21;15.30;99.90
48264;DHT22;34086;51.076;13.722;2022-09-03T07:27:21;15.20;99.90
48264;DHT22;34086;51.076;13.722;2022-09-03T07:28:23;15.30;99.90
48264;DHT22;34086;51.076;13.722;2022-09-03T07:29:24;15.30;99.90
48264;DHT22;34086;51.076;13.722;2022-09-03T07:30:24;15.30;99.90
48264;DHT22;34086;51.076;13.722;2022-09-03T07:31:28;15.30;99.90
48264;DHT22;34086;51.076;13.722;2022-09-03T07:32:30;15.30;99.90
48264;DHT22;34086;51.076;13.722;2022-09-03T07:33:32;15.40;99.90
48264;DHT22;34086;51.076;13.722;2022-09-03T07:34:34;15.40;99.90